createdAt,value
2023-03-10T00:01:29.512Z,99.90
2023-03-10T00:03:59.915Z,99.90
2023-03-10T00:06:33.645Z,99.90
2023-03-10T00:09:02.310Z,99.90
2023-03-10T00:11:31.105Z,99.90
2023-03-10T00:13:59.760Z,99.90
2023-03-10T00:16:32.574Z,99.90
2023-03-10T00:19:02.752Z,99.90
2023-03-10T00:21:33.535Z,99.90
2023-03-10T00:24:02.583Z,99.90
2023-03-10T00:26:32.460Z,99.90
2023-03-10T00:29:01.366Z,99.90
2023-03-10T00:31:34.802Z,99.90
2023-03-10T00:34:03.800Z,99.90
2023-03-10T00:36:33.574Z,99.90
2023-03-10T00:39:04.022Z,99.90
2023-03-10T00:41:39.292Z,99.90
2023-03-10T00:44:10.719Z,99.90
2023-03-10T00:46:42.652Z,99.90
2023-03-10T00:49:17.367Z,99.90
2023-03-10T00:51:46.129Z,99.90
2023-03-10T00:54:14.833Z,99.90
2023-03-10T00:56:43.758Z,99.90
2023-03-10T00:59:13.953Z,99.90
2023-03-10T01:01:44.263Z,99.90
2023-03-10T01:04:15.949Z,99.90
2023-03-10T01:06:47.895Z,99.90
2023-03-10T01:09:16.776Z,99.90
2023-03-10T01:11:45.398Z,99.90
2023-03-10T01:14:16.384Z,99.90
2023-03-10T01:16:46.617Z,99.90
2023-03-10T01:19:16.490Z,99.90
2023-03-10T01:21:45.060Z,99.90
2023-03-10T01:24:16.887Z,99.90
2023-03-10T01:26:46.897Z,99.90
2023-03-10T01:29:15.772Z,99.90
2023-03-10T01:31:45.998Z,99.90
2023-03-10T01:34:14.944Z,99.90
2023-03-10T01:36:44.237Z,99.90
2023-03-10T01:39:15.064Z,99.90
2023-03-10T01:41:44.284Z,99.90
2023-03-10T01:44:16.662Z,99.90
2023-03-10T01:46:54.459Z,99.90
2023-03-10T01:49:36.349Z,99.90
2023-03-10T01:52:10.208Z,99.90
2023-03-10T01:54:50.127Z,99.90
2023-03-10T01:57:23.319Z,99.90
2023-03-10T01:59:54.631Z,99.90
2023-03-10T02:02:25.893Z,99.90
2023-03-10T02:04:56.783Z,99.90
2023-03-10T02:07:30.626Z,99.90
2023-03-10T02:10:00.372Z,99.90
2023-03-10T02:12:29.026Z,99.90
2023-03-10T02:14:58.849Z,99.90
2023-03-10T02:17:29.437Z,99.90
2023-03-10T02:20:13.592Z,99.90
2023-03-10T02:22:42.605Z,99.90
2023-03-10T02:25:26.621Z,99.90
2023-03-10T02:28:00.212Z,99.90
2023-03-10T02:30:33.941Z,99.90
2023-03-10T02:33:06.844Z,99.90
2023-03-10T02:35:35.574Z,99.90
2023-03-10T02:38:09.462Z,99.90
2023-03-10T02:40:40.463Z,99.90
2023-03-10T02:43:20.117Z,99.90
2023-03-10T02:45:53.536Z,99.90
2023-03-10T02:48:28.319Z,99.90
2023-03-10T02:50:58.168Z,99.90
2023-03-10T02:53:29.598Z,99.90
2023-03-10T02:55:59.869Z,99.90
2023-03-10T02:58:33.441Z,99.90
2023-03-10T03:01:06.563Z,99.90
2023-03-10T03:03:39.996Z,99.90
2023-03-10T03:06:09.600Z,99.90
2023-03-10T03:08:38.206Z,99.90
2023-03-10T03:11:09.769Z,99.90
2023-03-10T03:13:40.308Z,99.90
2023-03-10T03:16:12.166Z,99.90
2023-03-10T03:18:41.555Z,99.90
2023-03-10T03:21:16.122Z,99.90
2023-03-10T03:23:46.993Z,99.90
2023-03-10T03:26:19.141Z,99.90
2023-03-10T03:28:49.932Z,99.90
2023-03-10T03:31:24.623Z,99.90
2023-03-10T03:34:00.222Z,99.90
2023-03-10T03:36:29.344Z,99.90
2023-03-10T03:38:58.644Z,99.90
2023-03-10T03:41:30.495Z,99.90
2023-03-10T03:44:01.735Z,99.90
2023-03-10T03:46:32.279Z,99.90
2023-03-10T03:49:01.548Z,99.90
2023-03-10T03:51:32.302Z,99.90
2023-03-10T03:54:01.828Z,99.90
2023-03-10T03:56:32.510Z,99.90
2023-03-10T03:59:02.604Z,99.90
2023-03-10T04:01:31.526Z,99.90
2023-03-10T04:04:02.366Z,99.90
2023-03-10T04:06:31.690Z,99.90
2023-03-10T04:09:00.544Z,99.90
2023-03-10T04:11:31.384Z,99.90
2023-03-10T04:14:01.669Z,99.90
2023-03-10T04:16:31.009Z,99.90
2023-03-10T04:18:59.797Z,99.90
2023-03-10T04:21:30.180Z,99.90
2023-03-10T04:24:00.649Z,99.90
2023-03-10T04:26:33.289Z,99.90
2023-03-10T04:29:03.869Z,99.90
2023-03-10T04:31:35.803Z,99.90
2023-03-10T04:34:05.749Z,99.90
2023-03-10T04:36:34.727Z,99.90
2023-03-10T04:39:05.237Z,99.90
2023-03-10T04:41:34.755Z,99.90
2023-03-10T04:44:05.563Z,99.90
2023-03-10T04:46:35.658Z,99.90
2023-03-10T04:49:04.431Z,99.90
2023-03-10T04:51:33.082Z,99.90
2023-03-10T04:54:01.889Z,99.90
2023-03-10T04:56:33.467Z,99.90
2023-03-10T04:59:05.066Z,99.90
2023-03-10T05:01:34.429Z,99.90
2023-03-10T05:04:07.488Z,99.90
2023-03-10T05:06:36.703Z,99.90
2023-03-10T05:09:25.723Z,99.90
2023-03-10T05:11:55.070Z,99.90
2023-03-10T05:14:25.357Z,99.90
2023-03-10T05:16:54.910Z,99.90
2023-03-10T05:19:23.603Z,99.90
2023-03-10T05:21:54.896Z,99.90
2023-03-10T05:24:24.096Z,99.90
2023-03-10T05:26:52.634Z,99.90
2023-03-10T05:29:21.414Z,99.90
2023-03-10T05:31:56.575Z,99.90
2023-03-10T05:34:32.210Z,99.90
2023-03-10T05:37:05.225Z,99.90
2023-03-10T05:39:33.978Z,99.90
2023-03-10T05:42:06.387Z,99.90
2023-03-10T05:44:36.873Z,99.90
2023-03-10T05:47:09.172Z,99.90
2023-03-10T05:49:38.899Z,99.90
2023-03-10T05:52:09.480Z,99.90
2023-03-10T05:54:39.512Z,99.90
2023-03-10T05:57:08.204Z,99.90
2023-03-10T05:59:37.905Z,99.90
2023-03-10T06:02:09.009Z,99.90
2023-03-10T06:04:37.709Z,99.90
2023-03-10T06:07:06.839Z,99.90
2023-03-10T06:09:35.410Z,99.90
2023-03-10T06:12:04.128Z,99.90
2023-03-10T06:14:32.941Z,99.90
2023-03-10T06:17:01.489Z,99.90
2023-03-10T06:19:32.058Z,99.90
2023-03-10T06:22:01.002Z,99.90
2023-03-10T06:24:30.064Z,99.90
2023-03-10T06:26:59.018Z,99.90
2023-03-10T06:29:27.791Z,99.90
2023-03-10T06:31:57.826Z,99.90
2023-03-10T06:34:26.332Z,99.90
2023-03-10T06:36:56.884Z,99.90
2023-03-10T06:39:29.021Z,99.90
2023-03-10T06:41:58.056Z,99.90
2023-03-10T06:44:26.725Z,99.90
2023-03-10T06:46:55.299Z,99.90
2023-03-10T06:49:24.017Z,99.90
2023-03-10T06:51:53.307Z,99.90
2023-03-10T06:54:26.758Z,99.90
2023-03-10T06:56:59.649Z,99.90
2023-03-10T06:59:29.263Z,99.90
2023-03-10T07:02:01.839Z,99.90
2023-03-10T07:04:31.557Z,99.90
2023-03-10T07:07:00.899Z,99.90
2023-03-10T07:09:37.205Z,99.90
2023-03-10T07:12:19.166Z,99.90
2023-03-10T07:14:53.216Z,99.90
2023-03-10T07:17:33.414Z,99.90
2023-03-10T07:20:02.763Z,99.90
2023-03-10T07:22:45.272Z,99.90
2023-03-10T07:25:26.520Z,99.90
2023-03-10T07:27:55.962Z,99.90
2023-03-10T07:30:33.493Z,99.90
2023-03-10T07:33:04.170Z,99.90
2023-03-10T07:35:39.468Z,99.90
2023-03-10T07:38:11.000Z,99.90
2023-03-10T07:40:46.868Z,99.90
2023-03-10T07:43:17.608Z,99.90
2023-03-10T07:45:47.180Z,99.90
2023-03-10T07:48:22.214Z,99.90
2023-03-10T07:51:01.804Z,99.90
2023-03-10T07:53:34.655Z,99.90
2023-03-10T07:56:09.517Z,99.90
2023-03-10T07:58:39.788Z,99.90
2023-03-10T08:01:12.219Z,99.90
2023-03-10T08:03:46.646Z,99.90
2023-03-10T08:06:20.699Z,99.90
2023-03-10T08:08:50.096Z,99.90
2023-03-10T08:11:23.994Z,99.90
2023-03-10T08:13:55.146Z,99.90
2023-03-10T08:16:56.941Z,99.90
2023-03-10T08:19:32.695Z,99.90
2023-03-10T08:22:11.593Z,99.90
2023-03-10T08:24:40.702Z,99.90
2023-03-10T08:27:14.345Z,99.90
2023-03-10T08:29:58.573Z,99.90
2023-03-10T08:32:28.181Z,99.90
2023-03-10T08:35:04.424Z,99.90
2023-03-10T08:37:33.388Z,99.90
2023-03-10T08:40:02.653Z,99.90
2023-03-10T08:42:55.501Z,99.90
2023-03-10T08:45:27.909Z,99.90
2023-03-10T08:47:59.576Z,99.90
2023-03-10T08:50:31.591Z,99.90
2023-03-10T08:53:01.559Z,99.90
2023-03-10T08:55:35.965Z,99.90
2023-03-10T08:58:16.946Z,99.90
2023-03-10T09:00:50.342Z,99.90
2023-03-10T09:03:19.738Z,99.90
2023-03-10T09:05:49.202Z,99.90
2023-03-10T09:08:20.179Z,99.90
2023-03-10T09:10:49.164Z,99.90
2023-03-10T09:13:30.473Z,99.90
2023-03-10T09:16:03.055Z,99.90
2023-03-10T09:18:32.556Z,99.90
2023-03-10T09:21:04.824Z,99.90
2023-03-10T09:23:34.058Z,99.90
2023-03-10T09:26:02.762Z,99.90
2023-03-10T09:28:42.839Z,99.90
2023-03-10T09:31:21.962Z,99.90
2023-03-10T09:33:59.883Z,99.90
2023-03-10T09:36:45.099Z,99.90
2023-03-10T09:39:23.323Z,99.90
2023-03-10T09:42:45.004Z,99.90
2023-03-10T09:45:37.584Z,99.90
2023-03-10T09:48:15.988Z,99.90
2023-03-10T09:50:57.716Z,99.90
2023-03-10T09:53:57.966Z,99.90
2023-03-10T09:56:32.324Z,99.90
2023-03-10T09:59:07.842Z,99.90
2023-03-10T10:01:40.223Z,99.90
2023-03-10T10:04:18.979Z,99.90
2023-03-10T10:07:02.544Z,99.90
2023-03-10T10:09:48.362Z,99.90
2023-03-10T10:15:35.328Z,99.90
2023-03-10T10:18:28.755Z,99.90
2023-03-10T10:21:13.087Z,99.80
2023-03-10T10:23:47.331Z,99.80
2023-03-10T10:26:21.858Z,99.00
2023-03-10T10:28:56.060Z,98.90
2023-03-10T10:31:29.007Z,98.90
2023-03-10T10:34:08.417Z,98.70
2023-03-10T10:36:41.939Z,98.30
2023-03-10T10:39:28.280Z,98.00
2023-03-10T10:42:16.145Z,97.80
2023-03-10T10:45:05.448Z,97.10
2023-03-10T10:48:16.932Z,96.90
2023-03-10T10:50:59.661Z,97.50
2023-03-10T10:53:38.658Z,97.00
2023-03-10T10:56:17.441Z,97.10
2023-03-10T10:59:47.502Z,98.10
2023-03-10T11:02:57.255Z,98.10
2023-03-10T11:05:35.309Z,98.20
2023-03-10T11:08:42.413Z,98.60
2023-03-10T11:11:37.075Z,98.40
2023-03-10T11:14:19.907Z,97.50
2023-03-10T11:17:00.690Z,97.70
2023-03-10T11:19:58.086Z,98.60
2023-03-10T11:22:51.893Z,99.30
2023-03-10T11:25:29.731Z,99.90
2023-03-10T11:28:22.131Z,99.90
2023-03-10T11:31:36.667Z,99.90
2023-03-10T11:34:32.444Z,99.00
2023-03-10T11:37:33.832Z,98.50
2023-03-10T11:44:26.279Z,99.90
2023-03-10T12:14:43.897Z,99.90
2023-03-10T12:21:50.148Z,99.90
2023-03-10T12:25:30.463Z,99.90
2023-03-10T12:29:07.284Z,99.90
2023-03-10T12:31:54.379Z,99.90
2023-03-10T12:34:34.613Z,99.90
2023-03-10T12:40:52.455Z,99.90
2023-03-10T12:44:03.378Z,99.90
2023-03-10T12:46:45.145Z,99.90
2023-03-10T12:49:31.670Z,99.90
2023-03-10T12:52:23.744Z,99.90
2023-03-10T12:55:16.764Z,99.90
2023-03-10T12:57:59.916Z,99.90
2023-03-10T13:00:51.744Z,99.90
2023-03-10T13:03:32.198Z,99.90
2023-03-10T13:06:11.625Z,99.90
2023-03-10T13:08:48.890Z,99.90
2023-03-10T13:11:40.586Z,99.90
2023-03-10T13:14:20.611Z,99.90
2023-03-10T13:16:57.015Z,99.90
2023-03-10T13:19:33.066Z,99.90
2023-03-10T13:22:07.509Z,99.90
2023-03-10T13:24:39.133Z,99.90
2023-03-10T13:27:14.595Z,99.90
2023-03-10T13:29:57.482Z,99.90
2023-03-10T13:32:29.240Z,99.90
2023-03-10T13:34:59.718Z,99.90
2023-03-10T13:37:31.561Z,99.90
2023-03-10T13:40:10.945Z,99.90
2023-03-10T13:42:44.326Z,99.90
2023-03-10T13:45:24.779Z,99.90
2023-03-10T13:47:55.026Z,99.90
2023-03-10T13:50:24.734Z,99.90
2023-03-10T13:53:01.653Z,99.90
2023-03-10T13:55:40.776Z,99.90
2023-03-10T13:58:14.410Z,99.90
2023-03-10T14:00:48.184Z,99.90
2023-03-10T14:03:17.916Z,99.90
2023-03-10T14:05:48.781Z,99.90
2023-03-10T14:08:26.394Z,99.90
2023-03-10T14:10:56.125Z,99.90
2023-03-10T14:13:46.538Z,99.90
2023-03-10T14:16:16.394Z,99.90
2023-03-10T14:18:47.274Z,99.90
2023-03-10T14:21:34.279Z,99.90
2023-03-10T14:24:13.902Z,99.90
2023-03-10T14:30:22.825Z,99.90
2023-03-10T14:32:53.086Z,99.90
2023-03-10T14:36:10.890Z,99.90
2023-03-10T14:53:31.865Z,99.90
2023-03-10T14:56:08.853Z,99.90
2023-03-10T14:58:56.636Z,99.90
2023-03-10T15:02:10.035Z,99.90
2023-03-10T15:04:50.372Z,99.90
2023-03-10T15:07:22.104Z,99.90
2023-03-10T15:10:12.761Z,99.90
2023-03-10T15:13:05.482Z,99.90
2023-03-10T15:15:42.807Z,99.90
2023-03-10T15:18:26.464Z,99.90
2023-03-10T15:21:06.457Z,99.90
2023-03-10T15:23:45.153Z,99.90
2023-03-10T15:26:36.842Z,99.90
2023-03-10T15:29:19.960Z,99.90
2023-03-10T15:32:06.168Z,99.90
2023-03-10T15:34:42.926Z,99.90
2023-03-10T15:37:19.592Z,99.90
2023-03-10T15:43:14.124Z,99.90
2023-03-10T15:45:55.491Z,99.90
2023-03-10T15:48:54.097Z,99.90
2023-03-10T15:51:29.756Z,99.90
2023-03-10T15:54:05.691Z,99.90
2023-03-10T16:20:26.643Z,99.90
2023-03-10T16:23:28.154Z,99.90
2023-03-10T16:26:08.112Z,99.90
2023-03-10T16:32:04.879Z,99.90
2023-03-10T16:34:40.784Z,99.90
2023-03-10T16:37:23.168Z,99.90
2023-03-10T16:40:21.937Z,99.90
2023-03-10T16:43:14.328Z,99.90
2023-03-10T16:46:14.065Z,99.90
2023-03-10T16:49:16.805Z,99.90
2023-03-10T16:52:10.937Z,99.90
2023-03-10T16:54:47.116Z,99.90
2023-03-10T16:57:19.474Z,99.90
2023-03-10T17:02:39.650Z,99.90
2023-03-10T17:05:18.453Z,99.90
2023-03-10T17:07:57.809Z,99.90
2023-03-10T17:10:51.326Z,99.90
2023-03-10T17:13:40.181Z,99.90
2023-03-10T17:16:28.839Z,99.90
2023-03-10T17:19:04.432Z,99.90
2023-03-10T17:21:50.799Z,99.90
2023-03-10T17:24:29.918Z,99.90
2023-03-10T17:27:04.541Z,99.90
2023-03-10T17:29:42.206Z,99.90
2023-03-10T17:32:14.627Z,99.90
2023-03-10T17:34:56.714Z,99.90
2023-03-10T17:37:28.026Z,99.90
2023-03-10T17:40:02.076Z,99.90
2023-03-10T17:42:32.865Z,99.90
2023-03-10T17:45:01.570Z,99.90
2023-03-10T17:47:30.569Z,99.90
2023-03-10T17:50:01.664Z,99.90
2023-03-10T17:52:31.024Z,99.90
2023-03-10T17:55:04.870Z,99.90
2023-03-10T17:57:33.759Z,99.90
2023-03-10T18:00:03.882Z,99.90
2023-03-10T18:02:41.298Z,99.90
2023-03-10T18:05:11.504Z,99.90
2023-03-10T18:07:45.291Z,99.90
2023-03-10T18:10:15.710Z,99.90
2023-03-10T18:12:44.858Z,99.90
2023-03-10T18:15:14.552Z,99.90
2023-03-10T18:17:43.630Z,99.90
2023-03-10T18:20:16.560Z,99.90
2023-03-10T18:22:45.662Z,99.90
2023-03-10T18:25:16.800Z,99.90
2023-03-10T18:27:45.802Z,99.90
2023-03-10T18:30:15.977Z,99.90
2023-03-10T18:32:44.799Z,99.90
2023-03-10T18:35:18.779Z,99.90
2023-03-10T18:37:49.761Z,99.90
2023-03-10T18:40:20.195Z,99.90
2023-03-10T18:42:49.205Z,99.90
2023-03-10T18:45:18.380Z,99.90
2023-03-10T18:47:46.987Z,99.90
2023-03-10T18:50:15.705Z,99.90
2023-03-10T18:52:44.211Z,99.90
2023-03-10T18:55:13.628Z,99.90
2023-03-10T18:57:46.754Z,99.90
2023-03-10T19:00:16.764Z,99.90
2023-03-10T19:02:45.714Z,99.90
2023-03-10T19:05:18.758Z,99.90
2023-03-10T19:07:47.829Z,99.90
2023-03-10T19:10:20.359Z,99.90
2023-03-10T19:12:51.348Z,99.90
2023-03-10T19:15:20.515Z,99.90
2023-03-10T19:17:50.563Z,99.90
2023-03-10T19:20:19.867Z,99.90
2023-03-10T19:22:51.209Z,99.90
2023-03-10T19:25:21.375Z,99.90
2023-03-10T19:27:56.054Z,99.90
2023-03-10T19:30:28.335Z,99.90
2023-03-10T19:32:59.584Z,99.90
2023-03-10T19:35:29.818Z,99.90
2023-03-10T19:37:59.206Z,99.90
2023-03-10T19:40:30.042Z,99.90
2023-03-10T19:43:03.670Z,99.90
2023-03-10T19:45:39.880Z,99.90
2023-03-10T19:48:10.559Z,99.90
2023-03-10T19:50:39.483Z,99.90
2023-03-10T19:53:08.893Z,99.90
2023-03-10T19:55:38.448Z,99.90
2023-03-10T19:58:09.365Z,99.90
2023-03-10T20:00:44.395Z,99.90
2023-03-10T20:03:13.754Z,99.90
2023-03-10T20:05:49.131Z,99.90
2023-03-10T20:08:21.854Z,99.90
2023-03-10T20:10:51.851Z,99.90
2023-03-10T20:13:32.246Z,99.90
2023-03-10T20:16:02.064Z,99.90
2023-03-10T20:18:36.482Z,99.90
2023-03-10T20:21:06.886Z,99.90
2023-03-10T20:23:37.036Z,99.90
2023-03-10T20:26:08.745Z,99.90
2023-03-10T20:28:40.422Z,99.90
2023-03-10T20:31:10.977Z,99.90
2023-03-10T20:33:40.580Z,99.90
2023-03-10T20:36:14.493Z,99.90
2023-03-10T20:38:44.611Z,99.90
2023-03-10T20:41:14.409Z,99.90
2023-03-10T20:43:47.999Z,99.90
2023-03-10T20:46:35.564Z,99.90
2023-03-10T20:49:06.075Z,99.90
2023-03-10T20:51:35.530Z,99.90
2023-03-10T20:54:04.453Z,99.90
2023-03-10T20:56:33.441Z,99.90
2023-03-10T20:59:03.884Z,99.90
2023-03-10T21:01:39.863Z,99.90
2023-03-10T21:04:08.730Z,99.90
2023-03-10T21:06:38.663Z,99.90
2023-03-10T21:09:08.345Z,99.90
2023-03-10T21:11:37.425Z,99.90
2023-03-10T21:14:08.893Z,99.90
2023-03-10T21:16:41.748Z,99.90
2023-03-10T21:19:14.657Z,99.90
2023-03-10T21:22:57.724Z,99.90
2023-03-10T21:35:14.492Z,99.90
2023-03-10T21:37:49.737Z,99.90
2023-03-10T21:44:03.485Z,99.90
2023-03-10T21:46:32.668Z,99.90
2023-03-10T21:49:02.315Z,99.90
2023-03-10T21:51:33.891Z,99.90
2023-03-10T21:54:05.404Z,99.90
2023-03-10T21:56:34.125Z,99.90
2023-03-10T21:59:03.195Z,99.90
2023-03-10T22:01:34.232Z,99.90
2023-03-10T22:04:04.902Z,99.90
2023-03-10T22:06:33.882Z,99.90
2023-03-10T22:09:04.481Z,99.90
2023-03-10T22:11:33.606Z,99.90
2023-03-10T22:14:02.543Z,99.90
2023-03-10T22:16:33.124Z,99.90
2023-03-10T22:19:02.119Z,99.90
2023-03-10T22:21:31.286Z,99.90
2023-03-10T22:24:01.790Z,99.90
2023-03-10T22:26:32.183Z,99.90
2023-03-10T22:29:01.986Z,99.90
2023-03-10T22:31:30.888Z,99.90
2023-03-10T22:34:00.861Z,99.90
2023-03-10T22:36:29.672Z,99.90
2023-03-10T22:38:58.654Z,99.90
2023-03-10T22:41:28.064Z,99.90
2023-03-10T22:44:01.361Z,99.90
2023-03-10T22:46:30.263Z,99.90
2023-03-10T22:48:59.297Z,99.90
2023-03-10T22:51:28.025Z,99.90
2023-03-10T22:53:57.029Z,99.90
2023-03-10T22:56:25.969Z,99.90
2023-03-10T22:58:54.469Z,99.90
2023-03-10T23:01:24.913Z,99.90
2023-03-10T23:03:53.360Z,99.90
2023-03-10T23:06:23.593Z,99.90
2023-03-10T23:08:52.118Z,99.90
2023-03-10T23:11:22.368Z,99.90
2023-03-10T23:13:50.852Z,99.90
2023-03-10T23:16:19.943Z,99.90
2023-03-10T23:18:50.232Z,99.90
2023-03-10T23:21:18.742Z,99.90
2023-03-10T23:23:48.090Z,99.90
2023-03-10T23:26:16.837Z,99.90
2023-03-10T23:28:46.011Z,99.90
2023-03-10T23:31:17.127Z,99.90
2023-03-10T23:33:46.666Z,99.90
2023-03-10T23:36:16.717Z,99.90
2023-03-10T23:38:45.135Z,99.90
2023-03-10T23:41:13.762Z,99.90
2023-03-10T23:43:42.369Z,99.90
2023-03-10T23:46:10.942Z,99.90
2023-03-10T23:48:39.494Z,99.90
2023-03-10T23:51:16.732Z,99.90
2023-03-10T23:53:46.367Z,99.90
2023-03-10T23:56:14.785Z,99.90
2023-03-10T23:58:43.386Z,99.90
